Time;durP1;ratioP1;P1;durP2;ratioP2;P2;SDS_P1;SDS_P2;PMS_P1;PMS_P2;Temp;Humidity;BMP_temperature;BMP_pressure;BME280_temperature;BME280_humidity;BME280_pressure;Samples;Min_cycle;Max_cycle;Signal;HPM_P1;HPM_P2
2023/05/19 00:01:21;;;;;;;5.17;2.20;;;11.30;96.50;;;;;;5037961;28;20275;-66
2023/05/19 00:03:57;;;;;;;4.20;2.27;;;11.30;96.50;;;;;;5037132;28;20677;-65
2023/05/19 00:06:26;;;;;;;7.13;2.87;;;11.20;96.80;;;;;;5039299;28;20195;-65
2023/05/19 00:08:56;;;;;;;7.30;2.27;;;11.00;97.00;;;;;;5038953;28;20749;-64
2023/05/19 00:11:23;;;;;;;7.13;2.63;;;10.90;97.10;;;;;;5035917;28;20206;-66
2023/05/19 00:13:49;;;;;;;6.20;2.17;;;10.80;97.20;;;;;;5030801;28;20212;-67
2023/05/19 00:16:15;;;;;;;5.10;2.57;;;10.90;97.60;;;;;;5039537;28;20213;-66
2023/05/19 00:18:42;;;;;;;4.73;2.27;;;10.80;97.20;;;;;;5039123;28;20202;-64
2023/05/19 00:21:08;;;;;;;4.77;2.20;;;10.70;97.70;;;;;;5038339;28;20202;-64
2023/05/19 00:23:33;;;;;;;6.87;2.70;;;10.70;97.80;;;;;;5036137;28;20198;-64
2023/05/19 00:25:59;;;;;;;5.50;2.87;;;10.80;97.90;;;;;;5038490;28;20203;-65
2023/05/19 00:28:24;;;;;;;7.23;2.40;;;10.80;97.90;;;;;;5039299;28;20373;-65
2023/05/19 00:30:50;;;;;;;4.00;2.00;;;10.70;97.80;;;;;;5037269;28;20223;-64
2023/05/19 00:33:16;;;;;;;5.63;2.70;;;10.90;97.90;;;;;;5037940;28;20274;-66
2023/05/19 00:35:41;;;;;;;4.50;2.30;;;10.80;97.70;;;;;;5036533;28;20204;-66
2023/05/19 00:38:06;;;;;;;5.20;2.37;;;11.00;97.30;;;;;;5039034;28;20665;-67
2023/05/19 00:40:35;;;;;;;3.93;2.20;;;11.10;97.10;;;;;;5038513;28;20198;-62
2023/05/19 00:43:00;;;;;;;2.13;1.83;;;11.10;97.20;;;;;;5035089;28;20232;-64
2023/05/19 00:45:26;;;;;;;4.80;2.57;;;11.20;96.70;;;;;;5038997;28;20614;-64
2023/05/19 00:47:52;;;;;;;6.10;2.33;;;11.20;96.60;;;;;;5033856;28;20673;-65
2023/05/19 00:50:17;;;;;;;5.23;2.80;;;11.00;97.00;;;;;;5022862;28;20545;-69
2023/05/19 00:52:43;;;;;;;3.80;2.43;;;11.00;97.00;;;;;;5029054;28;20216;-64
2023/05/19 00:55:10;;;;;;;8.70;2.60;;;10.70;97.50;;;;;;5028960;28;20289;-65
2023/05/19 00:57:36;;;;;;;8.20;2.37;;;10.70;97.70;;;;;;5028768;28;20221;-65
2023/05/19 01:00:02;;;;;;;7.73;2.40;;;10.60;98.00;;;;;;5025493;28;20217;-66
2023/05/19 01:02:28;;;;;;;7.33;2.60;;;10.50;98.20;;;;;;5028254;28;20564;-64
2023/05/19 01:04:56;;;;;;;5.50;2.50;;;10.40;98.40;;;;;;5027973;28;20743;-65
2023/05/19 01:07:22;;;;;;;5.73;2.83;;;10.50;98.40;;;;;;5028053;28;20263;-65
2023/05/19 01:09:48;;;;;;;6.00;2.37;;;10.50;98.70;;;;;;5027347;28;20205;-65
2023/05/19 01:12:14;;;;;;;4.30;2.10;;;10.40;99.00;;;;;;5019125;28;20265;-65
2023/05/19 01:14:41;;;;;;;5.17;3.40;;;10.30;98.70;;;;;;5028350;28;20210;-66
2023/05/19 01:17:19;;;;;;;3.30;2.40;;;10.40;98.60;;;;;;5030370;28;20207;-65
2023/05/19 01:20:00;;;;;;;10.67;2.77;;;10.40;98.90;;;;;;5025838;28;20279;-66
2023/05/19 01:22:48;;;;;;;8.10;2.27;;;10.40;98.80;;;;;;5027966;28;20237;-65
2023/05/19 01:25:52;;;;;;;5.77;3.10;;;10.20;99.10;;;;;;5023937;28;20220;-65
2023/05/19 01:28:37;;;;;;;3.60;2.17;;;10.30;99.00;;;;;;5037859;28;20671;-66
2023/05/19 01:31:06;;;;;;;5.07;2.50;;;10.50;98.80;;;;;;5037697;28;20319;-66
2023/05/19 01:33:32;;;;;;;7.47;2.17;;;10.40;98.70;;;;;;5037716;28;20247;-65
2023/05/19 01:36:02;;;;;;;6.20;1.90;;;10.20;98.90;;;;;;5037687;28;20196;-66
2023/05/19 01:38:29;;;;;;;3.47;1.67;;;10.10;99.10;;;;;;5035871;28;20262;-65
2023/05/19 01:40:56;;;;;;;4.33;2.37;;;10.20;99.40;;;;;;5037873;28;20724;-66
2023/05/19 01:43:24;;;;;;;3.50;2.53;;;10.20;99.10;;;;;;5038444;28;20201;-65
2023/05/19 01:45:50;;;;;;;6.97;2.60;;;10.10;99.40;;;;;;5037662;28;20201;-65
2023/05/19 01:48:17;;;;;;;6.13;2.57;;;10.00;99.70;;;;;;5035581;28;20374;-64
2023/05/19 01:50:43;;;;;;;4.67;2.23;;;10.10;99.80;;;;;;5028309;28;20232;-65
2023/05/19 01:53:09;;;;;;;6.93;2.63;;;10.10;99.70;;;;;;5036931;28;20250;-65
2023/05/19 01:55:48;;;;;;;5.00;2.50;;;10.10;99.50;;;;;;5036036;28;20225;-65
2023/05/19 01:58:26;;;;;;;3.23;1.90;;;10.00;99.70;;;;;;5030136;28;20400;-65
2023/05/19 02:00:56;;;;;;;2.93;1.87;;;10.00;99.70;;;;;;5036662;28;20195;-65
2023/05/19 02:03:55;;;;;;;3.70;2.03;;;9.80;99.90;;;;;;5035782;28;20206;-66
2023/05/19 02:06:39;;;;;;;6.70;2.20;;;9.80;99.90;;;;;;5037700;28;20213;-65
2023/05/19 02:09:17;;;;;;;4.13;2.70;;;9.70;99.90;;;;;;5021541;28;20227;-65
2023/05/19 02:11:54;;;;;;;3.37;2.13;;;9.70;99.90;;;;;;5029580;28;20212;-65
2023/05/19 02:14:27;;;;;;;4.70;2.63;;;9.70;99.90;;;;;;5024612;28;20273;-66
2023/05/19 02:16:56;;;;;;;4.83;2.57;;;9.80;99.90;;;;;;5026191;28;20645;-64
2023/05/19 02:19:28;;;;;;;5.03;2.37;;;9.80;99.90;;;;;;5026528;28;20288;-64
2023/05/19 02:21:53;;;;;;;6.03;2.10;;;9.90;99.90;;;;;;5024213;28;21138;-64
2023/05/19 02:24:21;;;;;;;6.40;2.30;;;9.60;99.90;;;;;;5018064;28;20278;-64
2023/05/19 02:26:47;;;;;;;4.73;2.10;;;9.50;99.90;;;;;;5027200;28;20214;-64
2023/05/19 02:29:13;;;;;;;6.83;2.30;;;9.60;99.90;;;;;;5028356;28;20574;-64
2023/05/19 02:31:38;;;;;;;3.90;1.83;;;9.50;99.90;;;;;;5027993;28;20223;-64
2023/05/19 02:34:04;;;;;;;5.97;2.37;;;9.70;99.90;;;;;;5025576;28;20225;-64
2023/05/19 02:36:33;;;;;;;7.47;2.50;;;9.70;99.90;;;;;;5026595;28;20212;-64
2023/05/19 02:39:00;;;;;;;4.50;2.33;;;9.80;99.90;;;;;;5025628;28;20205;-64
2023/05/19 02:41:26;;;;;;;4.57;2.83;;;9.70;99.90;;;;;;5026451;28;20258;-64
2023/05/19 02:43:52;;;;;;;3.87;2.00;;;9.50;99.90;;;;;;5026415;28;20211;-64
2023/05/19 02:46:18;;;;;;;6.33;2.00;;;9.40;99.90;;;;;;5026342;28;20231;-65
2023/05/19 02:48:43;;;;;;;6.53;2.93;;;9.40;99.90;;;;;;5025860;28;20214;-64
2023/05/19 02:51:08;;;;;;;6.80;2.03;;;9.40;99.90;;;;;;5026715;28;20211;-65
2023/05/19 02:53:35;;;;;;;4.33;1.97;;;9.40;99.90;;;;;;5026322;28;20583;-70
2023/05/19 02:56:00;;;;;;;6.07;2.40;;;9.40;99.90;;;;;;5026697;28;20355;-66
2023/05/19 02:58:26;;;;;;;3.03;2.00;;;9.40;99.90;;;;;;5026684;28;20200;-65
2023/05/19 03:00:51;;;;;;;6.30;2.50;;;9.30;99.90;;;;;;5023207;28;20199;-66
2023/05/19 03:03:17;;;;;;;6.20;2.17;;;9.50;99.90;;;;;;5025858;28;20516;-65
2023/05/19 03:05:42;;;;;;;4.70;2.37;;;9.50;99.90;;;;;;5025799;28;20205;-65
2023/05/19 03:08:08;;;;;;;8.40;2.30;;;9.50;99.90;;;;;;5026000;28;20208;-65
2023/05/19 03:10:34;;;;;;;4.00;1.93;;;9.50;99.90;;;;;;5023858;28;20210;-65
2023/05/19 03:12:59;;;;;;;4.17;2.40;;;9.40;99.90;;;;;;5020201;28;20367;-71
2023/05/19 03:15:25;;;;;;;5.37;2.57;;;9.50;99.90;;;;;;5022521;28;20199;-70
2023/05/19 03:17:50;;;;;;;10.67;3.10;;;9.40;99.90;;;;;;5026547;28;20204;-70
2023/05/19 03:20:16;;;;;;;8.53;2.53;;;9.30;99.90;;;;;;5026146;28;20740;-65
2023/05/19 03:22:42;;;;;;;6.10;2.30;;;9.40;99.90;;;;;;5025513;28;20268;-65
2023/05/19 03:25:08;;;;;;;5.53;2.50;;;9.30;99.90;;;;;;5023326;28;20286;-65
2023/05/19 03:27:34;;;;;;;7.30;2.10;;;9.40;99.90;;;;;;5025589;28;20200;-65
2023/05/19 03:29:59;;;;;;;3.10;2.10;;;9.60;99.90;;;;;;5025805;28;20974;-65
2023/05/19 03:32:25;;;;;;;2.47;1.70;;;9.60;99.90;;;;;;5025845;28;20236;-65
2023/05/19 03:34:50;;;;;;;5.50;2.20;;;9.70;99.90;;;;;;5028735;28;20271;-65
2023/05/19 03:37:16;;;;;;;4.30;2.40;;;9.70;99.90;;;;;;5020179;28;20208;-65
2023/05/19 03:39:41;;;;;;;5.07;2.70;;;9.60;99.90;;;;;;5026203;28;20675;-65
2023/05/19 03:42:07;;;;;;;3.80;2.13;;;9.60;99.90;;;;;;5026955;28;20209;-65
2023/05/19 03:44:32;;;;;;;3.93;3.23;;;9.60;99.90;;;;;;5026384;28;20740;-65
2023/05/19 03:46:58;;;;;;;5.77;2.20;;;9.60;99.90;;;;;;5026241;28;20204;-65
2023/05/19 03:49:23;;;;;;;3.63;2.40;;;9.70;99.90;;;;;;5024248;28;20206;-64
2023/05/19 03:51:49;;;;;;;2.73;2.00;;;9.60;99.90;;;;;;5026424;28;20279;-65
2023/05/19 03:54:14;;;;;;;5.83;2.20;;;9.40;99.90;;;;;;5035712;28;20223;-64
2023/05/19 03:56:41;;;;;;;3.53;2.03;;;9.40;99.90;;;;;;5035985;28;20218;-65
2023/05/19 03:59:07;;;;;;;4.33;2.70;;;9.50;99.90;;;;;;5035573;28;20236;-64
2023/05/19 04:01:32;;;;;;;3.80;2.10;;;9.60;99.90;;;;;;5035779;28;20224;-64
2023/05/19 04:03:58;;;;;;;3.90;2.20;;;9.60;99.90;;;;;;5034232;28;20893;-65
2023/05/19 04:06:24;;;;;;;8.50;2.10;;;9.50;99.90;;;;;;5035631;28;20209;-66
2023/05/19 04:08:49;;;;;;;5.13;2.80;;;9.60;99.90;;;;;;5035071;28;22389;-65
2023/05/19 04:11:15;;;;;;;4.63;2.40;;;9.90;99.90;;;;;;5035723;28;20574;-65
2023/05/19 04:13:40;;;;;;;4.10;2.37;;;9.90;99.90;;;;;;5033325;28;20231;-65
2023/05/19 04:16:06;;;;;;;3.90;3.03;;;9.80;99.90;;;;;;5035489;28;20199;-65
2023/05/19 04:18:31;;;;;;;4.30;2.73;;;9.70;99.90;;;;;;5026089;28;20729;-64
2023/05/19 04:20:57;;;;;;;4.20;2.60;;;9.70;99.90;;;;;;5035332;28;20412;-65
2023/05/19 04:23:22;;;;;;;8.93;2.37;;;9.80;99.90;;;;;;5036774;28;20664;-66
2023/05/19 04:25:48;;;;;;;5.67;2.13;;;9.70;99.90;;;;;;5039164;28;20888;-65
2023/05/19 04:28:14;;;;;;;5.13;2.50;;;9.80;99.90;;;;;;5037395;28;20232;-65
2023/05/19 04:30:41;;;;;;;7.60;2.60;;;9.80;99.90;;;;;;5038650;28;20548;-65
2023/05/19 04:33:08;;;;;;;4.47;2.13;;;9.90;99.90;;;;;;5038516;28;20224;-65
2023/05/19 04:35:33;;;;;;;4.50;2.20;;;9.90;99.90;;;;;;5027325;28;20200;-65
2023/05/19 04:38:00;;;;;;;6.80;2.73;;;10.10;99.90;;;;;;5037801;28;20249;-66
2023/05/19 04:40:26;;;;;;;4.30;2.40;;;10.10;99.90;;;;;;5036598;28;20291;-65
2023/05/19 04:42:52;;;;;;;5.53;2.37;;;10.20;99.90;;;;;;5038689;28;20326;-64
2023/05/19 04:45:18;;;;;;;7.13;2.87;;;10.10;99.90;;;;;;5038837;28;20208;-66
2023/05/19 04:47:45;;;;;;;4.00;2.57;;;10.10;99.90;;;;;;5038426;28;20205;-65
2023/05/19 04:50:11;;;;;;;5.70;2.20;;;10.20;99.90;;;;;;5038876;28;20623;-65
2023/05/19 04:52:37;;;;;;;4.27;2.03;;;10.20;99.90;;;;;;5036597;28;20292;-65
2023/05/19 04:55:02;;;;;;;6.47;2.40;;;10.40;99.90;;;;;;5038791;28;20608;-65
2023/05/19 04:57:28;;;;;;;3.37;2.87;;;10.50;99.90;;;;;;5038728;28;20205;-65
2023/05/19 04:59:58;;;;;;;5.70;2.47;;;10.50;99.90;;;;;;5038209;28;20197;-65
2023/05/19 05:02:26;;;;;;;7.03;2.60;;;10.50;99.90;;;;;;5035443;28;20292;-65
2023/05/19 05:04:53;;;;;;;8.33;2.90;;;10.60;99.90;;;;;;5038058;28;20204;-65
2023/05/19 05:07:20;;;;;;;4.23;2.50;;;10.70;99.90;;;;;;5038460;28;20666;-65
2023/05/19 05:09:46;;;;;;;4.33;2.40;;;10.80;99.90;;;;;;5038362;28;20388;-65
2023/05/19 05:12:13;;;;;;;5.60;2.70;;;10.90;99.90;;;;;;5038126;28;20205;-65
2023/05/19 05:14:39;;;;;;;3.03;2.63;;;10.80;99.90;;;;;;5037903;28;20198;-66
2023/05/19 05:17:06;;;;;;;5.13;2.70;;;10.90;99.90;;;;;;5037447;28;20304;-70
2023/05/19 05:19:32;;;;;;;7.80;2.47;;;10.90;99.90;;;;;;5038052;28;20198;-66
2023/05/19 05:21:58;;;;;;;8.53;2.23;;;10.90;99.90;;;;;;5037170;28;20194;-66
2023/05/19 05:24:24;;;;;;;5.63;2.40;;;10.90;99.90;;;;;;5035549;28;20214;-69
2023/05/19 05:26:50;;;;;;;7.03;2.70;;;11.10;99.90;;;;;;5023647;28;20217;-66
2023/05/19 05:29:15;;;;;;;4.87;2.60;;;11.20;99.90;;;;;;5037887;28;20699;-65
2023/05/19 05:31:41;;;;;;;8.07;3.40;;;11.30;99.90;;;;;;5038242;28;20818;-65
2023/05/19 05:34:07;;;;;;;7.20;3.10;;;11.40;99.90;;;;;;5037483;28;20738;-65
2023/05/19 05:36:34;;;;;;;5.60;2.97;;;11.50;99.90;;;;;;5037735;28;20219;-65
2023/05/19 05:39:01;;;;;;;5.87;2.77;;;11.50;99.90;;;;;;5036631;28;20209;-65
2023/05/19 05:41:28;;;;;;;5.37;2.73;;;11.30;99.90;;;;;;5037783;28;20209;-65
2023/05/19 05:43:53;;;;;;;5.47;2.10;;;11.20;99.90;;;;;;5037526;28;20689;-65
2023/05/19 05:46:19;;;;;;;6.63;2.90;;;11.30;99.90;;;;;;5037367;28;20292;-65
2023/05/19 05:48:45;;;;;;;3.97;2.20;;;11.40;99.90;;;;;;5037510;28;20208;-65
2023/05/19 05:51:11;;;;;;;7.77;3.00;;;11.40;99.90;;;;;;5035485;28;20306;-67
2023/05/19 05:53:41;;;;;;;8.63;3.70;;;11.40;99.90;;;;;;5037554;28;20214;-65
2023/05/19 05:56:08;;;;;;;7.47;2.60;;;11.40;99.90;;;;;;5037549;28;20230;-65
2023/05/19 05:58:35;;;;;;;3.90;2.47;;;11.50;99.90;;;;;;5028042;28;20191;-65
2023/05/19 06:01:01;;;;;;;3.60;3.00;;;11.60;99.90;;;;;;5037555;28;20210;-64
2023/05/19 06:03:27;;;;;;;3.13;2.27;;;11.90;99.90;;;;;;5035039;28;20649;-65
2023/05/19 06:05:52;;;;;;;7.43;3.00;;;12.00;99.90;;;;;;5037087;28;20199;-64
2023/05/19 06:08:18;;;;;;;7.43;3.83;;;12.00;99.90;;;;;;5037616;28;20233;-64
2023/05/19 06:10:43;;;;;;;4.47;2.47;;;12.00;99.90;;;;;;5027821;28;20703;-64
2023/05/19 06:13:09;;;;;;;4.63;2.83;;;12.10;99.90;;;;;;5037237;28;20298;-64
2023/05/19 06:15:35;;;;;;;6.37;3.20;;;12.20;99.90;;;;;;5035520;28;20232;-63
2023/05/19 06:18:00;;;;;;;4.83;2.43;;;12.00;99.90;;;;;;5023067;28;20213;-63
2023/05/19 06:20:26;;;;;;;3.80;2.33;;;12.10;99.90;;;;;;5036821;28;20207;-64
2023/05/19 06:22:52;;;;;;;7.50;2.23;;;12.10;99.90;;;;;;5036797;28;20969;-64
2023/05/19 06:25:17;;;;;;;4.33;2.10;;;12.40;99.90;;;;;;5036987;28;20203;-65
2023/05/19 06:27:43;;;;;;;2.40;1.97;;;12.50;99.90;;;;;;5037231;28;20562;-65
2023/05/19 06:30:08;;;;;;;7.53;2.40;;;12.70;99.90;;;;;;5035181;28;20305;-64
2023/05/19 06:32:34;;;;;;;5.10;2.60;;;12.70;99.90;;;;;;5036896;28;20230;-66
2023/05/19 06:35:00;;;;;;;5.77;2.37;;;12.70;99.90;;;;;;5036776;28;20213;-66
2023/05/19 06:37:25;;;;;;;4.50;2.90;;;12.90;99.80;;;;;;5036900;28;20661;-65
2023/05/19 06:39:54;;;;;;;3.53;2.80;;;12.90;99.60;;;;;;5036876;28;20191;-66
2023/05/19 06:42:24;;;;;;;5.17;2.90;;;13.00;99.80;;;;;;5030939;28;20351;-65
2023/05/19 06:44:50;;;;;;;5.53;2.20;;;13.20;99.30;;;;;;5026852;28;20210;-65
2023/05/19 06:47:16;;;;;;;5.33;2.60;;;13.10;99.30;;;;;;5026424;28;20210;-65
2023/05/19 06:49:49;;;;;;;6.30;2.60;;;13.10;99.90;;;;;;5026777;28;20283;-69
2023/05/19 06:52:15;;;;;;;6.20;2.57;;;13.10;99.90;;;;;;5017985;28;20703;-71
2023/05/19 06:54:40;;;;;;;3.27;2.23;;;13.00;99.80;;;;;;5027199;28;20242;-66
2023/05/19 06:57:06;;;;;;;5.77;2.40;;;13.20;99.70;;;;;;5027300;28;20205;-66
2023/05/19 06:59:31;;;;;;;3.77;2.60;;;13.40;99.80;;;;;;5026870;28;20291;-65
2023/05/19 07:01:57;;;;;;;4.33;3.27;;;13.60;99.30;;;;;;5026985;28;20186;-64
2023/05/19 07:04:22;;;;;;;5.80;2.70;;;13.80;98.80;;;;;;5024646;28;20227;-65
2023/05/19 07:06:49;;;;;;;4.03;2.50;;;13.90;98.80;;;;;;5025370;28;21056;-65
2023/05/19 07:09:15;;;;;;;7.87;3.07;;;13.90;98.90;;;;;;5035086;28;20212;-65
2023/05/19 07:11:40;;;;;;;4.40;2.37;;;14.00;98.30;;;;;;5033648;28;20211;-65
2023/05/19 07:14:06;;;;;;;7.60;2.70;;;13.90;98.90;;;;;;5029479;28;20218;-65
2023/05/19 07:16:31;;;;;;;5.30;3.10;;;13.80;99.10;;;;;;5036340;28;20194;-65
2023/05/19 07:18:57;;;;;;;6.90;2.90;;;13.90;99.40;;;;;;5034294;28;20674;-64
2023/05/19 07:21:22;;;;;;;8.60;3.13;;;13.90;99.10;;;;;;5034886;28;20199;-64
2023/05/19 07:23:48;;;;;;;6.67;2.77;;;14.20;98.60;;;;;;5026342;28;20751;-65
2023/05/19 07:26:13;;;;;;;5.87;2.73;;;14.30;98.90;;;;;;5036674;28;20195;-65
2023/05/19 07:28:39;;;;;;;4.63;2.60;;;14.20;98.80;;;;;;5034627;28;20269;-66
2023/05/19 07:31:05;;;;;;;5.53;2.83;;;14.30;98.70;;;;;;5036174;28;20207;-65
2023/05/19 07:33:30;;;;;;;6.57;2.83;;;14.50;98.10;;;;;;5024518;28;20218;-65
2023/05/19 07:35:56;;;;;;;4.80;2.60;;;14.50;98.50;;;;;;5036097;28;20194;-64
2023/05/19 07:38:21;;;;;;;5.93;2.37;;;14.60;98.10;;;;;;5036494;28;20298;-68
2023/05/19 07:40:47;;;;;;;4.80;2.20;;;14.70;98.30;;;;;;5044383;28;20633;-81
2023/05/19 07:43:12;;;;;;;2.90;2.60;;;14.60;98.30;;;;;;5042274;28;20241;-81
2023/05/19 07:45:38;;;;;;;3.17;2.07;;;14.60;98.50;;;;;;5033602;28;20203;-79
2023/05/19 07:48:04;;;;;;;4.47;2.47;;;14.80;98.60;;;;;;5037193;28;20230;-79
2023/05/19 07:50:30;;;;;;;3.07;2.50;;;15.00;98.10;;;;;;5026609;28;20755;-79
2023/05/19 07:52:55;;;;;;;7.47;2.63;;;15.10;97.90;;;;;;5026551;28;20712;-79
2023/05/19 07:55:22;;;;;;;4.60;3.00;;;15.00;98.40;;;;;;5029857;28;20199;-80
2023/05/19 07:57:48;;;;;;;2.23;2.00;;;15.00;98.20;;;;;;5027063;28;20596;-80
2023/05/19 08:00:14;;;;;;;3.17;2.10;;;15.40;96.80;;;;;;5026021;28;20226;-78
2023/05/19 08:02:40;;;;;;;2.47;2.10;;;15.60;96.50;;;;;;5030887;28;20199;-80
2023/05/19 08:05:08;;;;;;;5.13;2.23;;;15.80;96.80;;;;;;5030326;28;20210;-79
2023/05/19 08:07:33;;;;;;;6.00;2.80;;;15.80;96.80;;;;;;5031034;28;20194;-79
2023/05/19 08:09:59;;;;;;;2.93;2.10;;;15.80;96.70;;;;;;5028326;28;20336;-79
2023/05/19 08:12:27;;;;;;;3.90;2.30;;;15.80;97.00;;;;;;5026998;28;20352;-87
2023/05/19 08:14:53;;;;;;;7.53;2.53;;;15.90;96.60;;;;;;5026481;28;20203;-80
2023/05/19 08:17:18;;;;;;;3.93;2.33;;;16.00;96.60;;;;;;5029006;28;20610;-80
2023/05/19 08:19:44;;;;;;;4.23;2.53;;;16.00;96.60;;;;;;5029917;28;20192;-80
2023/05/19 08:22:09;;;;;;;4.90;2.37;;;16.20;96.00;;;;;;5029310;28;20696;-80
2023/05/19 08:24:35;;;;;;;4.30;2.47;;;16.30;95.80;;;;;;5027694;28;20738;-80
2023/05/19 08:27:00;;;;;;;4.80;3.10;;;16.60;95.00;;;;;;5033474;28;20203;-80
2023/05/19 08:29:26;;;;;;;3.23;2.40;;;16.90;94.40;;;;;;5026338;28;20232;-80
2023/05/19 08:31:52;;;;;;;3.17;2.60;;;17.10;94.20;;;;;;5029675;28;20199;-80
2023/05/19 08:34:18;;;;;;;3.40;2.37;;;17.10;93.80;;;;;;5031413;28;20216;-79
2023/05/19 08:36:44;;;;;;;3.53;2.33;;;17.00;94.30;;;;;;5035505;28;20222;-81
2023/05/19 08:39:10;;;;;;;3.00;1.93;;;17.10;93.70;;;;;;5038526;28;20224;-77
2023/05/19 08:41:36;;;;;;;7.97;2.53;;;17.10;93.60;;;;;;5038950;28;20206;-76
2023/05/19 08:44:02;;;;;;;4.30;2.37;;;16.90;94.30;;;;;;5038943;28;20195;-76
2023/05/19 08:46:28;;;;;;;2.70;2.50;;;17.00;93.60;;;;;;5032953;28;20213;-74
2023/05/19 08:49:00;;;;;;;6.07;2.50;;;17.10;92.70;;;;;;5020235;28;20586;-74
2023/05/19 08:51:30;;;;;;;12.33;7.43;;;17.00;92.60;;;;;;5024299;28;21118;-75
2023/05/19 08:53:59;;;;;;;3.33;2.37;;;16.90;93.70;;;;;;5021392;28;20226;-72
2023/05/19 08:56:25;;;;;;;5.67;2.10;;;17.00;92.30;;;;;;5020756;28;20202;-74
2023/05/19 08:58:51;;;;;;;3.47;1.87;;;17.00;91.90;;;;;;5017305;28;20737;-73
2023/05/19 09:01:18;;;;;;;2.30;2.10;;;16.90;92.00;;;;;;5024950;28;20227;-72
2023/05/19 09:03:45;;;;;;;4.00;2.50;;;16.70;91.90;;;;;;5024466;28;20290;-72
2023/05/19 09:06:13;;;;;;;4.53;2.50;;;16.60;92.70;;;;;;5022614;28;20241;-73
2023/05/19 09:08:40;;;;;;;2.97;1.87;;;16.70;92.20;;;;;;5024052;28;20269;-74
2023/05/19 09:11:07;;;;;;;3.97;2.60;;;17.00;91.10;;;;;;5022332;28;20626;-75
2023/05/19 09:13:33;;;;;;;4.50;2.10;;;17.00;93.20;;;;;;5024960;28;20233;-74
2023/05/19 09:15:59;;;;;;;3.80;1.80;;;17.00;92.20;;;;;;5025361;28;20669;-75
2023/05/19 09:18:25;;;;;;;3.60;1.70;;;17.30;91.00;;;;;;5023160;28;20191;-74
2023/05/19 09:20:58;;;;;;;2.43;2.00;;;17.20;91.20;;;;;;5022284;28;20251;-74
2023/05/19 09:23:30;;;;;;;2.83;2.27;;;17.40;91.00;;;;;;5019634;28;20204;-74
2023/05/19 09:25:56;;;;;;;2.07;1.60;;;17.80;90.00;;;;;;5023329;28;20307;-74
2023/05/19 09:28:30;;;;;;;1.60;1.50;;;17.90;87.80;;;;;;5022981;28;20222;-73
2023/05/19 09:31:06;;;;;;;1.93;1.23;;;18.00;86.60;;;;;;5017562;28;20237;-73
2023/05/19 09:33:34;;;;;;;1.67;1.57;;;18.10;85.40;;;;;;5017027;28;20222;-73
2023/05/19 09:36:02;;;;;;;2.73;1.50;;;18.10;82.70;;;;;;5017944;28;20664;-73
2023/05/19 09:38:28;;;;;;;4.30;1.20;;;17.80;83.20;;;;;;5019682;28;20303;-75
2023/05/19 09:40:58;;;;;;;1.40;1.30;;;17.90;84.80;;;;;;5021624;28;20290;-74
2023/05/19 09:43:29;;;;;;;1.73;1.60;;;17.90;84.00;;;;;;5020918;28;20381;-76
2023/05/19 09:45:59;;;;;;;3.97;1.80;;;18.10;84.40;;;;;;5023260;28;20207;-78
2023/05/19 09:48:26;;;;;;;2.10;1.80;;;18.30;84.90;;;;;;5024890;28;20269;-74
2023/05/19 09:50:53;;;;;;;3.93;1.63;;;18.40;82.60;;;;;;5025342;28;20188;-74
2023/05/19 09:53:19;;;;;;;1.97;1.30;;;18.40;81.80;;;;;;5023948;28;20273;-73
2023/05/19 09:55:45;;;;;;;2.73;2.07;;;18.50;80.60;;;;;;5025424;28;20264;-74
2023/05/19 09:58:16;;;;;;;2.23;1.37;;;18.60;81.00;;;;;;5021263;28;20200;-75
2023/05/19 10:00:42;;;;;;;1.77;1.30;;;18.30;81.30;;;;;;5030407;28;20217;-75
2023/05/19 10:03:08;;;;;;;2.57;1.30;;;18.40;81.30;;;;;;5037692;28;20645;-74
2023/05/19 10:05:35;;;;;;;2.57;1.50;;;18.40;79.10;;;;;;5037279;28;20199;-79
2023/05/19 10:08:01;;;;;;;6.20;1.33;;;18.30;77.70;;;;;;5027291;28;20208;-74
2023/05/19 10:10:28;;;;;;;1.10;1.00;;;18.30;80.00;;;;;;5033446;28;20195;-74
2023/05/19 10:12:55;;;;;;;3.53;1.37;;;18.10;80.60;;;;;;5032404;28;20571;-73
2023/05/19 10:15:20;;;;;;;2.93;2.00;;;18.20;78.80;;;;;;5032783;28;20217;-73
2023/05/19 10:17:46;;;;;;;6.13;1.57;;;18.30;77.80;;;;;;5025018;28;20200;-73
2023/05/19 10:20:16;;;;;;;2.40;1.40;;;18.40;77.20;;;;;;5022363;28;20713;-75
2023/05/19 10:22:43;;;;;;;6.20;4.40;;;18.50;78.40;;;;;;5027337;28;20291;-75
2023/05/19 10:25:10;;;;;;;1.50;1.40;;;18.60;79.40;;;;;;5030104;28;20226;-76
2023/05/19 10:27:42;;;;;;;1.17;1.07;;;18.50;78.00;;;;;;5025380;28;20293;-77
2023/05/19 10:30:13;;;;;;;5.17;1.67;;;18.50;77.20;;;;;;5023169;28;20228;-76
2023/05/19 10:32:41;;;;;;;5.87;1.70;;;18.40;77.70;;;;;;5028001;28;20242;-77
2023/05/19 10:35:25;;;;;;;1.67;1.27;;;18.20;78.60;;;;;;5025008;28;20215;-74
2023/05/19 10:38:06;;;;;;;6.37;1.23;;;18.40;76.90;;;;;;5029248;28;20381;-74
2023/05/19 10:40:58;;;;;;;4.20;1.57;;;18.40;77.80;;;;;;5022440;28;20664;-75
2023/05/19 10:43:43;;;;;;;1.70;1.60;;;18.50;78.60;;;;;;5021638;28;20209;-75
2023/05/19 10:46:09;;;;;;;7.30;1.67;;;18.50;78.20;;;;;;5023448;28;20228;-76
2023/05/19 10:48:35;;;;;;;2.40;1.77;;;18.50;77.60;;;;;;5027448;28;20759;-77
2023/05/19 10:51:01;;;;;;;3.10;1.40;;;18.80;73.70;;;;;;5034770;28;20243;-77
2023/05/19 10:53:31;;;;;;;1.73;1.10;;;18.60;77.00;;;;;;5032438;28;20301;-82
2023/05/19 10:56:02;;;;;;;2.43;1.40;;;18.80;77.10;;;;;;5035767;28;20205;-75
2023/05/19 10:58:40;;;;;;;3.70;1.80;;;19.00;73.90;;;;;;5035472;28;20207;-82
2023/05/19 11:01:13;;;;;;;4.00;1.43;;;19.00;73.80;;;;;;5030291;28;20204;-82
2023/05/19 11:03:49;;;;;;;1.50;1.20;;;18.80;78.30;;;;;;5031917;28;20204;-79
2023/05/19 11:06:29;;;;;;;1.10;1.00;;;18.90;75.20;;;;;;5023367;28;20255;-75
2023/05/19 11:08:56;;;;;;;1.90;1.13;;;18.80;74.30;;;;;;5025223;28;20567;-79
2023/05/19 11:11:22;;;;;;;1.43;1.27;;;18.80;76.90;;;;;;5030978;28;20207;-77
2023/05/19 11:13:51;;;;;;;1.47;1.10;;;18.90;75.40;;;;;;5019918;28;20216;-77
2023/05/19 11:16:31;;;;;;;3.97;1.50;;;18.80;75.30;;;;;;5027055;28;21020;-76
2023/05/19 11:18:59;;;;;;;6.73;1.47;;;18.70;75.60;;;;;;5025217;28;20530;-80
2023/05/19 11:22:07;;;;;;;2.90;1.43;;;18.70;75.50;;;;;;5010521;28;20199;-74
2023/05/19 11:24:39;;;;;;;2.73;1.37;;;18.80;74.10;;;;;;4946401;28;20236;-79
2023/05/19 11:27:27;;;;;;;2.70;1.40;;;18.90;73.20;;;;;;5016800;28;20731;-76
2023/05/19 11:29:54;;;;;;;1.97;1.20;;;18.90;73.50;;;;;;5020338;28;20228;-77
2023/05/19 11:32:21;;;;;;;1.90;1.50;;;18.70;73.50;;;;;;5027042;28;20201;-76
2023/05/19 11:34:48;;;;;;;1.67;1.37;;;18.60;76.10;;;;;;5028234;28;20249;-76
2023/05/19 11:37:15;;;;;;;4.30;1.53;;;18.70;74.40;;;;;;5002399;28;20244;-76
2023/05/19 11:39:40;;;;;;;2.00;1.13;;;19.00;73.90;;;;;;5027149;28;20239;-76
2023/05/19 11:42:09;;;;;;;1.43;1.33;;;18.80;73.90;;;;;;5024612;28;20749;-76
2023/05/19 11:44:35;;;;;;;1.23;1.00;;;18.60;75.20;;;;;;5015788;28;20205;-77
2023/05/19 11:47:01;;;;;;;1.17;1.07;;;18.70;74.40;;;;;;5015358;28;20211;-75
2023/05/19 11:49:28;;;;;;;1.70;1.40;;;18.70;74.50;;;;;;5020462;28;20474;-75
2023/05/19 11:51:54;;;;;;;1.43;1.00;;;18.80;74.10;;;;;;5013757;28;20209;-76
2023/05/19 11:54:19;;;;;;;4.37;1.37;;;18.90;72.50;;;;;;5022403;28;20804;-75
2023/05/19 11:56:46;;;;;;;1.47;1.37;;;19.20;72.20;;;;;;5018196;28;20215;-75
2023/05/19 11:59:11;;;;;;;1.33;1.13;;;19.00;73.30;;;;;;5025751;28;20254;-76
2023/05/19 12:01:37;;;;;;;3.50;2.00;;;19.20;72.00;;;;;;5028168;28;20206;-78
2023/05/19 12:04:09;;;;;;;2.20;1.70;;;19.30;71.00;;;;;;5015109;28;20545;-78
2023/05/19 12:06:35;;;;;;;2.30;1.20;;;19.10;73.90;;;;;;5022317;28;20202;-77
2023/05/19 12:09:04;;;;;;;1.63;1.53;;;19.10;70.60;;;;;;5021616;28;20337;-73
2023/05/19 12:11:30;;;;;;;2.23;1.47;;;19.30;73.50;;;;;;5018687;28;20189;-73
2023/05/19 12:14:00;;;;;;;2.77;1.47;;;19.40;69.70;;;;;;5025424;28;20223;-74
2023/05/19 12:16:33;;;;;;;5.83;1.80;;;19.50;68.00;;;;;;5026559;28;20201;-71
2023/05/19 12:18:59;;;;;;;2.17;1.30;;;19.40;68.30;;;;;;5023398;28;20490;-71
2023/05/19 12:21:24;;;;;;;3.73;1.37;;;19.50;69.30;;;;;;5026575;28;20695;-72
2023/05/19 12:23:50;;;;;;;2.53;1.20;;;19.30;69.30;;;;;;5023711;28;20206;-74
2023/05/19 12:26:18;;;;;;;1.47;1.27;;;19.30;69.70;;;;;;5024836;28;20230;-73
2023/05/19 12:28:49;;;;;;;2.23;1.23;;;19.40;65.90;;;;;;5023482;28;20210;-73
2023/05/19 12:31:15;;;;;;;1.63;1.20;;;19.60;65.60;;;;;;5025507;28;20221;-70
2023/05/19 12:33:41;;;;;;;2.70;1.50;;;19.60;66.00;;;;;;5023682;28;20225;-73
2023/05/19 12:36:07;;;;;;;1.80;1.50;;;19.80;66.70;;;;;;5029810;28;20277;-70
2023/05/19 12:38:36;;;;;;;1.80;1.23;;;19.60;64.90;;;;;;5025496;28;20689;-72
2023/05/19 12:41:02;;;;;;;1.70;1.60;;;19.60;67.10;;;;;;5026197;28;20203;-71
2023/05/19 12:43:27;;;;;;;2.60;1.40;;;19.70;66.20;;;;;;5019110;28;20239;-71
2023/05/19 12:45:53;;;;;;;1.10;1.10;;;20.10;65.60;;;;;;5026236;28;20212;-71
2023/05/19 12:48:21;;;;;;;2.40;1.57;;;20.20;69.90;;;;;;5030283;28;20853;-71
2023/05/19 12:50:48;;;;;;;6.60;2.03;;;20.10;65.50;;;;;;5028496;28;20237;-78